Time;durP1;ratioP1;P1;durP2;ratioP2;P2;SDS_P1;SDS_P2;PMS_P1;PMS_P2;Temp;Humidity;BMP_temperature;BMP_pressure;BME280_temperature;BME280_humidity;BME280_pressure;Samples;Min_cycle;Max_cycle;Signal;HPM_P1;HPM_P2
2023/12/08 00:02:12;;;;;;;2.67;1.70;;;;;;;9.77;73.64;101472.09;5065796;28;20031;-85
2023/12/08 00:04:38;;;;;;;2.60;1.60;;;;;;;9.75;73.93;101475.41;5069240;28;20086;-85
2023/12/08 00:07:04;;;;;;;2.67;1.77;;;;;;;10.05;73.49;101533.97;5060166;28;20036;-85
2023/12/08 00:09:31;;;;;;;1.90;1.60;;;;;;;10.09;73.31;101532.50;5069841;28;20484;-84
2023/12/08 00:11:57;;;;;;;3.35;1.75;;;;;;;9.87;73.12;101514.47;5054855;28;20024;-84
2023/12/08 00:14:23;;;;;;;1.92;1.73;;;;;;;9.90;73.44;101517.28;5072405;28;20028;-85
2023/12/08 00:20:28;;;;;;;2.57;1.80;;;;;;;9.45;73.52;101443.81;5028673;28;20120;-84
2023/12/08 00:23:11;;;;;;;2.08;1.50;;;;;;;9.36;73.78;101425.84;5043415;28;20365;-84
2023/12/08 00:25:36;;;;;;;1.90;1.60;;;;;;;9.90;73.37;101527.72;5068343;28;20029;-85
2023/12/08 00:28:03;;;;;;;2.00;1.67;;;;;;;9.72;73.35;101478.72;5067554;28;20503;-85
2023/12/08 00:30:29;;;;;;;2.42;1.90;;;;;;;9.95;73.02;101542.00;5055935;28;20491;-84
2023/12/08 00:32:55;;;;;;;2.50;1.52;;;;;;;9.93;73.20;101541.88;5069479;28;20035;-84
2023/12/08 00:35:30;;;;;;;2.60;1.65;;;;;;;9.91;73.47;101538.28;5045370;28;20554;-84
2023/12/08 00:41:18;;;;;;;2.38;1.77;;;;;;;9.33;73.12;101435.13;5068943;28;20419;-85
2023/12/08 00:43:44;;;;;;;4.85;1.77;;;;;;;9.51;73.24;101469.41;5069778;28;20028;-84
2023/12/08 00:46:09;;;;;;;2.75;1.85;;;;;;;9.74;72.80;101516.22;5071956;28;20036;-84
2023/12/08 00:48:35;;;;;;;2.55;2.00;;;;;;;9.60;73.79;101482.19;5070710;28;20029;-84
2023/12/08 00:51:12;;;;;;;2.22;1.58;;;;;;;9.79;72.60;101516.53;5058699;28;20040;-84
2023/12/08 00:54:05;;;;;;;;;;;;;;;9.90;73.29;101519.88;5064624;28;20032;-84
2023/12/08 00:57:01;;;;;;;2.03;1.50;;;;;;;9.14;73.05;101407.81;5063345;28;19908;-84
2023/12/08 00:59:54;;;;;;;1.60;1.50;;;;;;;9.76;73.21;101526.78;5062779;28;20132;-83
2023/12/08 01:02:25;;;;;;;2.30;1.77;;;;;;;9.37;73.03;101455.41;5051224;28;20516;-84
2023/12/08 01:08:36;;;;;;;2.53;1.70;;;;;;;9.67;73.80;101503.59;5037003;28;20171;-83
2023/12/08 01:11:10;;;;;;;1.70;1.60;;;;;;;9.70;72.62;101509.00;5071436;28;20123;-83
2023/12/08 01:13:39;;;;;;;2.40;1.80;;;;;;;9.40;72.71;101473.88;5054318;28;20071;-84
2023/12/08 01:16:06;;;;;;;1.55;1.45;;;;;;;9.36;73.20;101458.81;5044133;28;20434;-83
2023/12/08 01:18:32;;;;;;;2.20;1.67;;;;;;;9.51;73.23;101478.13;5053403;28;20024;-84
2023/12/08 01:21:06;;;;;;;2.28;1.50;;;;;;;9.58;72.58;101493.38;5067229;28;20044;-84
2023/12/08 01:23:38;;;;;;;3.20;1.50;;;;;;;9.76;73.29;101521.56;5063548;28;20025;-84
2023/12/08 01:26:08;;;;;;;2.33;1.38;;;;;;;9.47;73.08;101470.88;5034222;28;20024;-85
2023/12/08 01:28:34;;;;;;;1.77;1.65;;;;;;;9.53;72.88;101484.34;5069002;28;20531;-83
2023/12/08 01:31:00;;;;;;;3.08;1.83;;;;;;;9.72;72.87;101512.63;5072065;28;20583;-85
2023/12/08 01:33:26;;;;;;;3.13;1.70;;;;;;;9.16;73.05;101413.09;5060342;28;20115;-85
2023/12/08 01:35:52;;;;;;;2.15;1.60;;;;;;;9.37;72.91;101445.88;5070810;28;20028;-84
2023/12/08 01:38:18;;;;;;;2.00;1.58;;;;;;;9.40;72.55;101452.09;5071775;28;20078;-85
2023/12/08 01:40:43;;;;;;;2.10;1.80;;;;;;;9.38;73.33;101450.31;5071346;28;20052;-85
2023/12/08 01:43:11;;;;;;;2.10;1.70;;;;;;;9.55;73.00;101484.47;5072230;28;20083;-85
2023/12/08 01:45:36;;;;;;;2.65;1.65;;;;;;;9.58;72.47;101495.09;5060426;28;20396;-84
2023/12/08 01:48:03;;;;;;;2.38;1.70;;;;;;;9.50;71.97;101486.75;5075337;28;20530;-85
2023/12/08 01:50:29;;;;;;;3.00;1.70;;;;;;;9.56;72.56;101499.31;5067719;28;20043;-84
2023/12/08 01:52:55;;;;;;;2.55;1.80;;;;;;;9.45;72.84;101455.94;5057298;28;20021;-85
2023/12/08 01:55:20;;;;;;;2.15;1.75;;;;;;;9.36;72.55;101467.53;5056370;28;20086;-85
2023/12/08 01:57:46;;;;;;;2.25;1.90;;;;;;;9.12;72.76;101431.91;5045089;28;20024;-85
2023/12/08 02:00:13;;;;;;;2.58;1.90;;;;;;;9.13;72.97;101433.75;5036009;28;20078;-85
2023/12/08 02:02:38;;;;;;;2.53;1.90;;;;;;;9.59;72.83;101517.78;5041592;28;20559;-85
2023/12/08 02:05:05;;;;;;;2.05;1.60;;;;;;;9.37;72.67;101474.53;5042659;28;20037;-85
2023/12/08 02:07:31;;;;;;;2.17;1.70;;;;;;;9.45;72.13;101501.16;5060987;28;20059;-83
2023/12/08 02:09:57;;;;;;;;;;;;;;;9.59;72.58;101528.22;5068761;28;20483;-83
2023/12/08 02:12:23;;;;;;;2.00;1.80;;;;;;;9.47;73.06;101504.78;5052280;28;19919;-83
2023/12/08 02:14:50;;;;;;;2.13;1.65;;;;;;;9.59;73.07;101530.81;5070532;28;20032;-84
2023/12/08 02:17:33;;;;;;;1.73;1.63;;;;;;;9.44;72.79;101498.44;5051992;28;20031;-84
2023/12/08 02:20:03;;;;;;;2.30;1.67;;;;;;;9.56;72.10;101520.16;5053171;28;20131;-84
2023/12/08 02:22:28;;;;;;;1.80;1.60;;;;;;;9.59;72.75;101528.22;5065277;28;20024;-84
2023/12/08 02:24:54;;;;;;;2.40;1.88;;;;;;;9.46;72.37;101504.66;5064162;28;20047;-85
2023/12/08 02:27:20;;;;;;;1.85;1.65;;;;;;;9.46;72.45;101507.28;5060561;28;20106;-84
2023/12/08 02:29:46;;;;;;;2.17;1.67;;;;;;;9.16;71.85;101450.50;5053408;28;20487;-84
2023/12/08 02:32:22;;;;;;;1.70;1.60;;;;;;;9.23;72.85;101470.09;5058574;28;20047;-83
2023/12/08 02:34:49;;;;;;;1.83;1.63;;;;;;;9.46;72.74;101518.63;5049297;28;20036;-83
2023/12/08 02:37:15;;;;;;;;;;;;;;;9.57;72.63;101538.53;5046754;28;20513;-83
2023/12/08 02:39:41;;;;;;;2.45;1.80;;;;;;;8.88;72.10;101425.91;5083735;28;19920;-84
2023/12/08 02:42:07;;;;;;;2.47;1.95;;;;;;;8.93;72.28;101447.94;5046667;28;20043;-83
2023/12/08 02:44:33;;;;;;;1.80;1.70;;;;;;;8.87;72.13;101450.13;5068636;28;20036;-84
2023/12/08 02:46:59;;;;;;;3.38;2.15;;;;;;;9.03;72.48;101476.47;5072254;28;20057;-84
2023/12/08 02:49:25;;;;;;;;;;;;;;;9.26;71.99;101543.25;5051201;28;20059;-83
2023/12/08 02:51:50;;;;;;;2.40;1.67;;;;;;;9.28;72.49;101527.75;5064485;28;20402;-83
2023/12/08 02:54:16;;;;;;;2.20;1.95;;;;;;;9.12;71.81;101503.19;5067716;28;20025;-83
2023/12/08 02:56:41;;;;;;;2.70;2.33;;;;;;;9.34;71.91;101541.22;5063021;28;20031;-83
2023/12/08 02:59:07;;;;;;;2.03;1.83;;;;;;;9.16;72.17;101532.97;5050132;28;20033;-83
2023/12/08 03:01:33;;;;;;;2.85;2.10;;;;;;;9.42;72.62;101559.97;5064392;28;20457;-83
2023/12/08 03:03:58;;;;;;;2.80;1.95;;;;;;;9.25;72.23;101524.91;5053937;28;20037;-84
2023/12/08 03:06:24;;;;;;;2.67;2.13;;;;;;;9.02;71.99;101489.41;5058924;28;20068;-83
2023/12/08 03:08:50;;;;;;;2.92;1.77;;;;;;;9.14;72.71;101529.34;5068581;28;20062;-84
2023/12/08 03:11:15;;;;;;;3.05;2.30;;;;;;;9.02;71.86;101492.91;5056331;28;20028;-83
2023/12/08 03:13:41;;;;;;;3.15;2.13;;;;;;;9.03;72.11;101499.03;5049934;28;20039;-84
2023/12/08 03:16:07;;;;;;;2.15;1.80;;;;;;;9.35;71.93;101556.94;5059039;28;20551;-84
2023/12/08 03:18:33;;;;;;;2.30;2.10;;;;;;;9.22;71.24;101546.44;5066269;28;20020;-86
2023/12/08 03:20:58;;;;;;;2.58;2.10;;;;;;;9.03;72.08;101522.47;5054092;28;20033;-84
2023/12/08 03:23:24;;;;;;;2.78;2.22;;;;;;;8.86;71.66;101509.13;5067304;28;20037;-85
2023/12/08 03:25:50;;;;;;;3.15;2.38;;;;;;;8.76;72.16;101493.63;5079807;28;20127;-84
2023/12/08 03:28:15;;;;;;;2.72;2.30;;;;;;;8.92;71.94;101519.97;5050359;28;20070;-85
2023/12/08 03:30:41;;;;;;;3.78;2.72;;;;;;;8.94;72.07;101513.19;5053429;28;20043;-85
2023/12/08 03:33:07;;;;;;;2.72;2.17;;;;;;;8.97;72.33;101533.34;5069893;28;20153;-85
2023/12/08 03:35:34;;;;;;;3.20;2.50;;;;;;;9.03;71.59;101552.03;5060541;28;20060;-85
2023/12/08 03:38:00;;;;;;;3.45;2.30;;;;;;;8.57;71.74;101478.34;5027452;28;20036;-85
2023/12/08 03:40:26;;;;;;;2.30;2.10;;;;;;;8.92;72.08;101537.31;5040653;28;20097;-84
2023/12/08 03:42:51;;;;;;;3.40;2.78;;;;;;;8.96;71.77;101518.53;5048564;28;20032;-84
2023/12/08 03:45:17;;;;;;;2.67;2.47;;;;;;;8.60;71.36;101480.28;5074926;28;20032;-85
2023/12/08 03:47:43;;;;;;;2.42;2.20;;;;;;;8.53;71.90;101478.94;5051593;28;20106;-84
2023/12/08 03:50:09;;;;;;;3.03;2.60;;;;;;;8.46;71.98;101461.94;5051828;28;20546;-84
2023/12/08 03:52:35;;;;;;;3.13;2.70;;;;;;;8.78;71.21;101510.25;5067828;28;20036;-84
2023/12/08 03:55:00;;;;;;;3.72;2.70;;;;;;;8.94;71.77;101533.13;5044594;28;20448;-84
2023/12/08 03:57:26;;;;;;;3.65;2.40;;;;;;;8.81;71.50;101507.00;5050743;28;20474;-84
2023/12/08 03:59:52;;;;;;;3.38;2.42;;;;;;;8.66;71.09;101501.56;5059124;28;20408;-85
2023/12/08 04:02:18;;;;;;;3.35;2.65;;;;;;;8.56;71.50;101476.56;5059766;28;20046;-84
2023/12/08 04:04:43;;;;;;;3.08;2.60;;;;;;;8.79;71.34;101514.69;5069093;28;20544;-84
2023/12/08 04:07:09;;;;;;;3.70;2.80;;;;;;;9.18;72.09;101573.06;5050756;28;20557;-84
2023/12/08 04:09:35;;;;;;;3.28;2.80;;;;;;;9.13;71.56;101572.75;5051803;28;20510;-85
2023/12/08 04:12:01;;;;;;;3.05;2.45;;;;;;;8.86;71.32;101522.13;5038558;28;20102;-84
2023/12/08 04:14:27;;;;;;;4.53;2.90;;;;;;;8.80;71.93;101515.59;5069866;28;20108;-84
2023/12/08 04:16:52;;;;;;;3.50;2.70;;;;;;;9.13;71.57;101557.09;5059748;28;20028;-85
2023/12/08 04:19:19;;;;;;;3.72;2.70;;;;;;;8.77;71.40;101522.38;5063453;28;20447;-83
2023/12/08 04:21:45;;;;;;;3.65;2.92;;;;;;;8.86;71.73;101529.06;5051559;28;20126;-84
2023/12/08 04:24:11;;;;;;;3.92;2.70;;;;;;;8.66;71.09;101514.59;5054435;28;20032;-84
2023/12/08 04:26:36;;;;;;;3.25;2.53;;;;;;;8.96;71.45;101562.81;5072647;28;20113;-85
2023/12/08 04:29:02;;;;;;;3.70;2.80;;;;;;;8.83;71.49;101542.78;5055270;28;20052;-84
2023/12/08 04:31:28;;;;;;;5.32;2.92;;;;;;;8.96;71.27;101568.00;5060825;28;20067;-84
2023/12/08 04:33:53;;;;;;;5.03;2.80;;;;;;;8.94;71.90;101554.88;5045208;28;20037;-84
2023/12/08 04:36:19;;;;;;;2.72;2.20;;;;;;;8.76;71.70;101525.78;5069099;28;20065;-84
2023/12/08 04:38:45;;;;;;;4.20;2.67;;;;;;;8.84;71.27;101541.97;5065696;28;20027;-84
2023/12/08 04:41:10;;;;;;;3.45;2.83;;;;;;;8.96;71.37;101563.69;5051625;28;20041;-84
2023/12/08 04:43:36;;;;;;;3.65;2.60;;;;;;;8.87;71.54;101544.81;5071874;28;20114;-84
2023/12/08 04:46:02;;;;;;;3.50;2.60;;;;;;;8.76;71.43;101532.69;5040093;28;20076;-85
2023/12/08 04:48:28;;;;;;;;;;;;;;;9.08;71.55;101597.56;5046882;28;20036;-84
2023/12/08 04:50:54;;;;;;;2.80;2.47;;;;;;;8.69;71.83;101523.50;5051213;28;19932;-85
2023/12/08 04:53:19;;;;;;;3.63;2.70;;;;;;;8.91;71.64;101561.53;5054995;28;20074;-85
2023/12/08 04:55:45;;;;;;;3.17;2.55;;;;;;;9.07;71.35;101594.84;5061999;28;20103;-84
2023/12/08 04:58:12;;;;;;;3.63;2.67;;;;;;;9.07;71.45;101584.44;5050610;28;20041;-84
2023/12/08 05:00:38;;;;;;;3.63;2.80;;;;;;;8.87;71.52;101543.88;5069288;28;20075;-85
2023/12/08 05:03:03;;;;;;;3.60;2.90;;;;;;;9.11;71.14;101587.38;5075137;28;20071;-84
2023/12/08 05:05:29;;;;;;;3.92;2.65;;;;;;;9.16;70.99;101588.63;5055972;28;20044;-84
2023/12/08 05:07:55;;;;;;;3.63;2.53;;;;;;;9.11;71.21;101579.53;5066958;28;20543;-84
2023/12/08 05:10:20;;;;;;;2.85;2.53;;;;;;;9.14;71.41;101582.38;5061949;28;20067;-84
2023/12/08 05:12:46;;;;;;;4.13;2.90;;;;;;;9.15;71.39;101593.72;5039366;28;20162;-86
2023/12/08 05:15:12;;;;;;;3.63;2.72;;;;;;;8.86;70.91;101542.97;5059924;28;20089;-84
2023/12/08 05:17:38;;;;;;;4.30;2.75;;;;;;;9.08;71.37;101589.75;5052052;28;20040;-85
2023/12/08 05:20:05;;;;;;;4.43;2.90;;;;;;;9.10;70.95;101600.25;5058912;28;20048;-85
2023/12/08 05:22:31;;;;;;;5.80;3.00;;;;;;;8.68;71.18;101518.22;5068978;28;20123;-84
2023/12/08 05:24:56;;;;;;;6.60;3.90;;;;;;;8.59;71.36;101534.03;5064395;28;20158;-84
2023/12/08 05:27:22;;;;;;;5.80;3.40;;;;;;;9.02;71.60;101609.25;5064599;28;20419;-84
2023/12/08 05:29:48;;;;;;;6.60;3.72;;;;;;;8.83;71.14;101570.53;5062223;28;20037;-84
2023/12/08 05:32:14;;;;;;;5.03;3.15;;;;;;;9.01;71.08;101597.91;5062091;28;20028;-85
2023/12/08 05:34:39;;;;;;;7.68;3.70;;;;;;;8.98;71.25;101595.09;5048430;28;20044;-84
2023/12/08 05:37:05;;;;;;;5.85;3.70;;;;;;;9.12;71.10;101617.84;5059081;28;20043;-85
2023/12/08 05:39:32;;;;;;;6.00;3.50;;;;;;;9.19;70.93;101632.22;5053034;28;20040;-84
2023/12/08 05:41:57;;;;;;;6.63;3.90;;;;;;;9.12;71.01;101619.53;5049785;28;20036;-85
2023/12/08 05:44:23;;;;;;;6.78;4.10;;;;;;;9.10;71.55;101628.94;5048317;28;20416;-87
2023/12/08 05:46:48;;;;;;;8.23;4.45;;;;;;;9.07;71.07;101624.41;5066566;28;20036;-85
2023/12/08 05:49:17;;;;;;;6.93;4.32;;;;;;;9.04;71.38;101623.25;5081336;28;20036;-85
2023/12/08 05:51:43;;;;;;;5.88;3.47;;;;;;;9.00;70.81;101618.66;5051409;28;20040;-85
2023/12/08 05:54:09;;;;;;;8.77;4.13;;;;;;;9.05;71.16;101631.19;5046227;28;20640;-85
2023/12/08 05:56:35;;;;;;;7.75;4.03;;;;;;;8.75;71.26;101576.03;5050141;28;20104;-84
2023/12/08 05:59:00;;;;;;;8.80;4.60;;;;;;;8.56;71.45;101552.94;5070028;28;20032;-85
2023/12/08 06:01:35;;;;;;;8.05;4.30;;;;;;;8.59;71.16;101554.84;5055842;28;20028;-85
2023/12/08 06:04:01;;;;;;;8.35;4.28;;;;;;;8.85;70.55;101587.16;5047000;28;20033;-85
2023/12/08 06:06:31;;;;;;;8.05;4.30;;;;;;;8.82;71.20;101585.22;5045505;28;20572;-86
2023/12/08 06:08:57;;;;;;;7.65;4.32;;;;;;;8.94;70.93;101616.50;5060502;28;20029;-88
2023/12/08 06:11:32;;;;;;;8.00;4.95;;;;;;;8.92;71.25;101624.19;5026349;28;20534;-86
2023/12/08 06:13:59;;;;;;;8.30;4.18;;;;;;;9.08;71.40;101656.56;5036783;28;20043;-88
2023/12/08 06:16:25;;;;;;;8.32;4.60;;;;;;;8.68;71.26;101597.22;5067060;28;20566;-89
2023/12/08 06:18:51;;;;;;;6.90;3.90;;;;;;;8.81;71.56;101624.19;5039408;28;20127;-87
2023/12/08 06:21:17;;;;;;;7.60;4.55;;;;;;;8.90;70.77;101641.38;5066140;28;20059;-88
2023/12/08 06:23:42;;;;;;;6.82;4.13;;;;;;;8.91;70.64;101626.66;5084315;28;20154;-88
2023/12/08 06:26:11;;;;;;;7.60;4.28;;;;;;;9.05;71.02;101659.88;5035704;28;20039;-87
2023/12/08 06:28:37;;;;;;;7.25;4.50;;;;;;;9.00;71.10;101661.22;5028686;28;20054;-85
2023/12/08 06:31:02;;;;;;;8.70;4.65;;;;;;;8.91;71.40;101645.81;5046625;28;20119;-86
2023/12/08 06:33:28;;;;;;;8.75;4.82;;;;;;;8.96;71.10;101654.88;5067794;28;20044;-87
2023/12/08 06:35:54;;;;;;;8.63;4.80;;;;;;;8.97;71.49;101661.00;5052928;28;20020;-86
2023/12/08 06:38:19;;;;;;;6.60;4.40;;;;;;;9.02;70.94;101674.38;5076424;28;20047;-87
2023/12/08 06:40:45;;;;;;;7.93;4.57;;;;;;;8.63;70.77;101592.47;5054537;28;20036;-88
2023/12/08 06:43:11;;;;;;;7.05;4.20;;;;;;;9.08;71.22;101670.53;5060367;28;20047;-86
2023/12/08 06:45:37;;;;;;;10.07;5.90;;;;;;;8.45;66.00;101590.28;5070526;28;20029;-86
2023/12/08 06:48:04;;;;;;;10.52;5.00;;;;;;;8.90;68.57;101684.78;5071280;28;20032;-85
2023/12/08 06:50:30;;;;;;;9.23;5.00;;;;;;;8.84;69.58;101682.59;5054997;28;20024;-85
2023/12/08 06:52:56;;;;;;;7.70;4.78;;;;;;;8.42;69.62;101603.06;5065003;28;20029;-86
2023/12/08 06:55:22;;;;;;;8.07;4.85;;;;;;;8.91;70.38;101692.72;5066225;28;20033;-85
2023/12/08 06:57:49;;;;;;;9.13;5.18;;;;;;;8.85;69.65;101666.19;5033314;28;20037;-85
2023/12/08 07:00:16;;;;;;;8.98;4.90;;;;;;;8.99;70.17;101697.59;5070118;28;20567;-86
2023/12/08 07:02:44;;;;;;;9.07;4.88;;;;;;;8.82;70.21;101681.56;5048016;28;20089;-86
2023/12/08 07:05:10;;;;;;;10.95;4.72;;;;;;;8.76;70.22;101671.63;5064411;28;20020;-85
2023/12/08 07:07:36;;;;;;;7.68;4.65;;;;;;;8.70;70.07;101665.03;5052079;28;20093;-86
2023/12/08 07:10:02;;;;;;;9.60;5.30;;;;;;;8.95;70.72;101699.97;5058478;28;20030;-86
2023/12/08 07:12:28;;;;;;;9.50;4.80;;;;;;;8.68;70.66;101671.84;5059227;28;20107;-84
2023/12/08 07:14:53;;;;;;;9.95;4.97;;;;;;;8.51;70.32;101653.22;5046435;28;20123;-85
2023/12/08 07:17:19;;;;;;;7.85;4.38;;;;;;;8.76;70.80;101707.16;5047918;28;20040;-86
2023/12/08 07:19:45;;;;;;;7.13;5.15;;;;;;;8.65;70.48;101662.06;5047914;28;20082;-86
2023/12/08 07:22:10;;;;;;;12.63;4.93;;;;;;;8.85;70.68;101707.88;5055469;28;20113;-86
2023/12/08 07:24:39;;;;;;;6.90;4.65;;;;;;;8.95;70.73;101723.41;5064714;28;20086;-86
2023/12/08 07:27:04;;;;;;;7.50;4.80;;;;;;;8.70;70.42;101675.44;5049340;28;20032;-87
2023/12/08 07:29:30;;;;;;;7.55;4.57;;;;;;;8.76;70.54;101681.13;5052232;28;20033;-85
2023/12/08 07:31:58;;;;;;;7.03;4.40;;;;;;;8.61;70.22;101651.31;5052918;28;20060;-87
2023/12/08 07:34:24;;;;;;;7.85;4.75;;;;;;;8.69;70.09;101664.13;5066371;28;20032;-88
2023/12/08 07:36:50;;;;;;;6.80;4.90;;;;;;;8.80;70.90;101696.19;5064863;28;20478;-86
2023/12/08 07:39:15;;;;;;;8.55;4.88;;;;;;;8.72;69.85;101703.44;5070571;28;20400;-86
2023/12/08 07:41:43;;;;;;;6.97;4.50;;;;;;;8.69;71.05;101684.94;5050355;28;20052;-86
2023/12/08 07:44:08;;;;;;;8.65;4.93;;;;;;;8.89;70.88;101724.63;5049295;28;20082;-87
2023/12/08 07:46:34;;;;;;;7.63;4.60;;;;;;;8.55;70.43;101659.56;5052512;28;20458;-86
2023/12/08 07:49:00;;;;;;;7.70;5.22;;;;;;;8.84;70.75;101715.56;5051713;28;20024;-87
2023/12/08 07:51:25;;;;;;;7.25;4.55;;;;;;;8.72;70.34;101681.66;5051888;28;20028;-86
2023/12/08 07:53:51;;;;;;;7.75;4.72;;;;;;;8.55;71.04;101663.09;5064276;28;20044;-86
2023/12/08 07:56:17;;;;;;;7.32;4.90;;;;;;;8.89;70.63;101715.13;5063141;28;20509;-86
2023/12/08 07:58:43;;;;;;;8.68;4.93;;;;;;;8.73;70.78;101692.22;5050896;28;20112;-87
2023/12/08 08:01:09;;;;;;;8.48;4.63;;;;;;;8.79;70.75;101712.63;5057832;28;20031;-85
2023/12/08 08:03:34;;;;;;;7.90;4.65;;;;;;;8.60;70.71;101676.44;5066957;28;20043;-86
2023/12/08 08:06:00;;;;;;;7.82;4.85;;;;;;;8.73;70.73;101693.91;5068855;28;20414;-86
2023/12/08 08:08:26;;;;;;;7.15;4.72;;;;;;;8.49;70.71;101638.28;5067732;28;20059;-86
2023/12/08 08:10:51;;;;;;;9.40;4.75;;;;;;;8.68;70.79;101679.66;5051019;28;20104;-85
2023/12/08 08:13:17;;;;;;;10.23;5.70;;;;;;;8.75;71.06;101700.16;5067250;28;20486;-85
2023/12/08 08:15:43;;;;;;;7.82;5.15;;;;;;;8.84;71.06;101723.38;5066461;28;20028;-86
2023/12/08 08:18:08;;;;;;;8.10;4.72;;;;;;;8.49;70.96;101666.94;5068101;28;20422;-86
2023/12/08 08:20:34;;;;;;;8.48;4.75;;;;;;;8.75;70.63;101714.06;5067725;28;20033;-87
2023/12/08 08:23:00;;;;;;;8.32;5.22;;;;;;;8.77;70.82;101716.81;5034158;28;20029;-84
2023/12/08 08:25:25;;;;;;;7.57;5.00;;;;;;;8.74;71.32;101714.88;5067874;28;20024;-83
2023/12/08 08:27:53;;;;;;;8.68;5.22;;;;;;;8.69;70.99;101699.69;5068515;28;20136;-85
2023/12/08 08:30:20;;;;;;;7.75;4.95;;;;;;;8.85;71.25;101728.72;5064138;28;20044;-84
2023/12/08 08:32:46;;;;;;;7.82;5.07;;;;;;;8.76;71.20;101707.16;5036003;28;20120;-85
2023/12/08 08:35:11;;;;;;;9.05;5.55;;;;;;;8.62;71.15;101695.69;5065304;28;20085;-86
2023/12/08 08:37:37;;;;;;;8.80;5.32;;;;;;;8.65;71.15;101708.94;5052089;28;20028;-85
2023/12/08 08:40:05;;;;;;;7.85;5.00;;;;;;;8.80;71.09;101721.31;5068325;28;20503;-85
2023/12/08 08:42:31;;;;;;;8.68;4.75;;;;;;;8.59;71.30;101679.84;5046506;28;20499;-85
2023/12/08 08:44:57;;;;;;;8.10;5.15;;;;;;;8.67;71.24;101696.94;5045306;28;20028;-85
2023/12/08 08:47:23;;;;;;;8.82;5.00;;;;;;;8.74;71.25;101691.44;5068696;28;20031;-84
2023/12/08 08:49:49;;;;;;;8.02;5.43;;;;;;;8.81;71.25;101716.25;5032950;28;20025;-83
2023/12/08 08:52:15;;;;;;;9.90;5.43;;;;;;;8.61;71.08;101678.25;5044827;28;20049;-84
2023/12/08 08:54:40;;;;;;;8.15;4.90;;;;;;;8.79;71.26;101715.22;5067471;28;20542;-86
2023/12/08 08:57:06;;;;;;;8.70;5.47;;;;;;;8.74;70.60;101721.75;5068368;28;20029;-85
2023/12/08 08:59:32;;;;;;;8.82;5.43;;;;;;;8.58;71.36;101692.75;5049814;28;20033;-84
2023/12/08 09:01:57;;;;;;;10.10;5.50;;;;;;;8.63;71.48;101697.50;5062733;28;20492;-84
2023/12/08 09:04:23;;;;;;;8.15;5.00;;;;;;;8.79;71.20;101717.81;5080573;28;20031;-85
2023/12/08 09:06:49;;;;;;;8.23;5.32;;;;;;;8.81;71.40;101712.75;5057054;28;20029;-84
2023/12/08 09:09:14;;;;;;;10.10;5.90;;;;;;;8.62;71.00;101676.59;5068922;28;20024;-84
2023/12/08 09:11:41;;;;;;;8.00;5.13;;;;;;;8.71;71.35;101685.06;5047730;28;20024;-85
2023/12/08 09:14:07;;;;;;;7.43;5.13;;;;;;;8.50;71.30;101648.78;5069138;28;20055;-85
2023/12/08 09:16:33;;;;;;;7.68;4.95;;;;;;;8.50;71.36;101648.78;5065899;28;20495;-85
2023/12/08 09:18:59;;;;;;;7.72;5.05;;;;;;;8.46;70.96;101636.34;5072233;28;20565;-85
2023/12/08 09:21:42;;;;;;;8.38;5.38;;;;;;;8.79;71.32;101678.75;5052711;28;20107;-86
2023/12/08 09:24:07;;;;;;;9.82;6.00;;;;;;;8.75;70.94;101672.41;5049944;28;20052;-82
2023/12/08 09:26:34;;;;;;;8.05;5.22;;;;;;;8.46;71.14;101617.22;5076404;28;20403;-83
2023/12/08 09:29:07;;;;;;;8.95;5.28;;;;;;;8.75;71.10;101669.78;5069683;28;20056;-82
2023/12/08 09:31:34;;;;;;;7.47;4.93;;;;;;;8.78;71.06;101666.50;5079171;28;20064;-85
2023/12/08 09:34:02;;;;;;;8.40;5.28;;;;;;;8.68;71.30;101653.63;5076827;28;20025;-86
2023/12/08 09:36:33;;;;;;;8.73;5.60;;;;;;;8.54;71.27;101624.81;5062427;28;20025;-85
2023/12/08 09:39:00;;;;;;;8.02;5.32;;;;;;;8.54;71.29;101652.56;5048034;28;20491;-85
2023/12/08 09:41:31;;;;;;;8.88;5.53;;;;;;;8.71;71.24;101670.34;5083484;28;20050;-84
2023/12/08 09:44:36;;;;;;;8.35;5.25;;;;;;;8.71;71.44;101667.75;5090138;28;20069;-84
2023/12/08 09:47:07;;;;;;;7.70;5.22;;;;;;;8.67;71.24;101657.00;5095339;28;20032;-85
2023/12/08 09:49:39;;;;;;;7.80;5.38;;;;;;;8.52;71.36;101636.81;5081273;28;20016;-84
2023/12/08 09:52:05;;;;;;;8.60;5.30;;;;;;;8.67;71.08;101654.38;5080653;28;20054;-84
2023/12/08 09:54:31;;;;;;;8.75;5.32;;;;;;;8.74;70.67;101652.38;5079703;28;20020;-85
2023/12/08 09:56:57;;;;;;;;;;;;;;;8.75;70.76;101646.38;5062690;28;20036;-84
2023/12/08 09:59:31;;;;;;;7.95;4.97;;;;;;;8.71;71.05;101627.78;5080413;28;19947;-84
2023/12/08 10:01:57;;;;;;;8.23;5.50;;;;;;;8.80;71.06;101648.41;5083431;28;20021;-85
2023/12/08 10:04:26;;;;;;;7.18;5.07;;;;;;;8.74;70.97;101634.16;5075676;28;20043;-85
2023/12/08 10:06:53;;;;;;;8.35;5.55;;;;;;;8.80;70.78;101649.31;5071949;28;20032;-85
2023/12/08 10:09:19;;;;;;;9.25;5.88;;;;;;;8.74;70.69;101634.16;5053834;28;20020;-85
2023/12/08 10:11:45;;;;;;;8.18;5.47;;;;;;;8.80;70.62;101643.19;5033852;28;20075;-84
2023/12/08 10:14:14;;;;;;;8.45;5.72;;;;;;;8.71;70.43;101639.09;5059407;28;20037;-85
2023/12/08 10:16:43;;;;;;;8.75;5.85;;;;;;;8.75;71.23;101632.44;5053065;28;20027;-84
2023/12/08 10:19:09;;;;;;;10.65;7.07;;;;;;;8.43;70.75;101586.66;5054024;28;20018;-84
2023/12/08 10:21:36;;;;;;;9.55;5.80;;;;;;;8.62;71.43;101635.81;5060910;28;20028;-84
2023/12/08 10:24:05;;;;;;;9.25;6.03;;;;;;;8.44;71.43;101588.47;5066975;28;20033;-84
2023/12/08 10:26:32;;;;;;;10.85;6.22;;;;;;;8.71;71.19;101617.38;5035575;28;20479;-86
2023/12/08 10:28:59;;;;;;;9.60;5.97;;;;;;;8.70;71.25;101615.53;5036566;28;20151;-85
2023/12/08 10:31:25;;;;;;;9.40;5.88;;;;;;;8.59;71.08;101609.53;5051821;28;20040;-85
2023/12/08 10:33:51;;;;;;;9.90;6.03;;;;;;;8.43;71.02;101565.84;5060625;28;20076;-85
2023/12/08 10:36:18;;;;;;;10.10;6.18;;;;;;;8.14;70.93;101524.56;5068425;28;20482;-85
2023/12/08 10:38:44;;;;;;;10.10;6.47;;;;;;;8.55;71.12;101595.41;5071436;28;20499;-85
2023/12/08 10:41:13;;;;;;;8.32;5.70;;;;;;;8.64;71.22;101617.72;5052531;28;20044;-86
2023/12/08 10:43:39;;;;;;;10.43;6.20;;;;;;;8.62;71.00;101611.50;5053679;28;20089;-86
2023/12/08 10:46:06;;;;;;;9.07;6.07;;;;;;;8.69;71.01;101617.25;5051066;28;20111;-86
2023/12/08 10:48:34;;;;;;;10.75;5.90;;;;;;;8.69;70.94;101611.16;5043209;28;20033;-86
2023/12/08 10:51:00;;;;;;;10.55;5.78;;;;;;;8.69;71.35;101617.25;5070351;28;20028;-86
2023/12/08 10:53:26;;;;;;;9.48;5.88;;;;;;;8.56;70.75;101593.69;5070004;28;20488;-85
2023/12/08 10:55:52;;;;;;;;;;;;;;;8.68;71.09;101618.06;5053076;28;20028;-87
2023/12/08 10:58:21;;;;;;;8.90;5.78;;;;;;;8.65;71.16;101617.81;5070775;28;19908;-84
2023/12/08 11:00:49;;;;;;;8.52;5.65;;;;;;;8.51;71.19;101587.25;5045280;28;20028;-85
2023/12/08 11:03:19;;;;;;;8.88;5.63;;;;;;;8.59;71.19;101613.84;5051629;28;20064;-86
2023/12/08 11:05:47;;;;;;;9.57;6.05;;;;;;;8.57;71.20;101598.09;5040101;28;20048;-85
2023/12/08 11:08:18;;;;;;;10.25;6.25;;;;;;;8.61;71.27;101607.06;5069978;28;20031;-86
2023/12/08 11:10:52;;;;;;;8.75;5.47;;;;;;;8.44;71.33;101571.94;5060667;28;20028;-86
2023/12/08 11:13:28;;;;;;;9.90;6.20;;;;;;;8.67;70.93;101600.59;5054004;28;20085;-86
2023/12/08 11:16:22;;;;;;;9.00;5.85;;;;;;;8.67;71.18;101604.91;5037160;28;20031;-86
2023/12/08 11:18:50;;;;;;;9.55;5.82;;;;;;;8.42;71.28;101565.72;5038838;28;20037;-86
2023/12/08 11:21:17;;;;;;;9.95;6.15;;;;;;;8.49;70.09;101583.63;5063299;28;20028;-86
2023/12/08 11:23:44;;;;;;;10.18;6.60;;;;;;;8.38;70.52;101584.47;5049675;28;20024;-86
2023/12/08 11:26:52;;;;;;;10.20;6.18;;;;;;;8.45;71.28;101610.22;5052112;28;20415;-85
2023/12/08 11:29:36;;;;;;;9.68;5.60;;;;;;;8.37;69.74;101593.97;5040402;28;20048;-86
2023/12/08 11:32:17;;;;;;;9.40;5.82;;;;;;;8.45;70.45;101615.41;5048511;28;20819;-86
2023/12/08 11:35:01;;;;;;;9.57;6.43;;;;;;;8.42;69.98;101609.97;5058418;28;20051;-86
2023/12/08 11:37:30;;;;;;;10.13;6.22;;;;;;;8.40;69.99;101601.09;5050757;28;20036;-86
2023/12/08 11:40:06;;;;;;;7.45;4.95;;;;;;;8.38;70.28;101574.94;5033749;28;20039;-87
2023/12/08 11:42:35;;;;;;;10.13;6.03;;;;;;;8.54;69.68;101585.75;5033491;28;20036;-87
2023/12/08 11:45:01;;;;;;;8.57;5.63;;;;;;;8.62;69.48;101591.56;5055528;28;20123;-86
2023/12/08 11:47:26;;;;;;;10.15;5.95;;;;;;;8.51;69.61;101582.06;5066762;28;20063;-84